createdAt,value
2023-03-06T00:00:37.120Z,-6.23
2023-03-06T00:01:33.382Z,-6.24
2023-03-06T00:02:33.404Z,-6.23
2023-03-06T00:03:33.576Z,-6.18
2023-03-06T00:04:33.414Z,-6.19
2023-03-06T00:05:33.484Z,-6.19
2023-03-06T00:06:33.414Z,-6.21
2023-03-06T00:07:33.468Z,-6.26
2023-03-06T00:08:33.516Z,-6.3
2023-03-06T00:09:33.494Z,-6.33
2023-03-06T00:10:33.534Z,-6.29
2023-03-06T00:11:33.507Z,-6.21
2023-03-06T00:12:33.522Z,-6.19
2023-03-06T00:13:33.548Z,-6.13
2023-03-06T00:14:33.675Z,-6.04
2023-03-06T00:15:34.357Z,-6.02
2023-03-06T00:16:34.245Z,-5.97
2023-03-06T00:17:34.101Z,-5.96
2023-03-06T00:18:34.256Z,-5.92
2023-03-06T00:19:34.147Z,-5.94
2023-03-06T00:20:35.011Z,-5.91
2023-03-06T00:21:34.132Z,-6.02
2023-03-06T00:22:34.287Z,-6.04
2023-03-06T00:23:34.229Z,-6.08
2023-03-06T00:24:34.200Z,-6.1
2023-03-06T00:25:34.414Z,-6.03
2023-03-06T00:26:34.248Z,-5.98
2023-03-06T00:27:34.302Z,-5.92
2023-03-06T00:28:34.681Z,-5.81
2023-03-06T00:29:34.286Z,-5.86
2023-03-06T00:30:34.295Z,-5.79
2023-03-06T00:31:34.400Z,-5.82
2023-03-06T00:32:34.420Z,-5.86
2023-03-06T00:33:34.346Z,-5.85
2023-03-06T00:34:34.416Z,-5.79
2023-03-06T00:35:34.474Z,-5.8
2023-03-06T00:36:34.438Z,-5.84
2023-03-06T00:37:34.496Z,-5.9
2023-03-06T00:38:34.456Z,-5.99
2023-03-06T00:39:34.501Z,-6.08
2023-03-06T00:40:34.466Z,-6.07
2023-03-06T00:41:34.496Z,-6.03
2023-03-06T00:42:34.516Z,-5.95
2023-03-06T00:43:34.509Z,-5.98
2023-03-06T00:44:35.000Z,-6.07
2023-03-06T00:45:34.630Z,-5.95
2023-03-06T00:46:34.602Z,-5.95
2023-03-06T00:47:34.660Z,-6
2023-03-06T00:48:34.759Z,-5.95
2023-03-06T00:49:34.900Z,-6.01
2023-03-06T00:50:34.637Z,-6.05
2023-03-06T00:51:34.644Z,-6.01
2023-03-06T00:52:34.697Z,-5.97
2023-03-06T00:53:35.146Z,-5.91
2023-03-06T00:54:35.247Z,-5.87
2023-03-06T00:55:35.237Z,-5.87
2023-03-06T00:56:35.201Z,-5.84
2023-03-06T00:57:35.207Z,-5.81
2023-03-06T00:58:35.238Z,-5.76
2023-03-06T00:59:35.405Z,-5.79
2023-03-06T01:00:35.272Z,-5.79
2023-03-06T01:01:35.303Z,-5.77
2023-03-06T01:02:35.430Z,-5.77
2023-03-06T01:03:35.327Z,-5.74
2023-03-06T01:04:35.379Z,-5.76
2023-03-06T01:05:36.323Z,-5.81
2023-03-06T01:06:35.708Z,-5.81
2023-03-06T01:07:35.381Z,-5.79
2023-03-06T01:08:35.395Z,-5.76
2023-03-06T01:09:35.443Z,-5.78
2023-03-06T01:10:39.249Z,-5.79
2023-03-06T01:11:35.452Z,-5.78
2023-03-06T01:12:35.492Z,-5.74
2023-03-06T01:13:35.507Z,-5.75
2023-03-06T01:14:35.562Z,-5.74
2023-03-06T01:15:35.551Z,-5.71
2023-03-06T01:16:35.721Z,-5.74
2023-03-06T01:17:35.597Z,-5.76
2023-03-06T01:18:36.092Z,-5.71
2023-03-06T01:19:35.823Z,-5.75
2023-03-06T01:20:35.620Z,-5.7
2023-03-06T01:21:35.722Z,-5.72
2023-03-06T01:22:35.647Z,-5.76
2023-03-06T01:23:35.677Z,-5.83
2023-03-06T01:24:35.702Z,-5.85
2023-03-06T01:25:35.733Z,-5.9
2023-03-06T01:26:35.741Z,-5.87
2023-03-06T01:27:35.770Z,-5.8
2023-03-06T01:28:36.484Z,-5.82
2023-03-06T01:29:35.752Z,-5.86
2023-03-06T01:30:35.792Z,-5.86
2023-03-06T01:31:35.996Z,-5.81
2023-03-06T01:32:35.812Z,-5.82
2023-03-06T01:33:36.027Z,-5.86
2023-03-06T01:34:35.854Z,-5.88
2023-03-06T01:35:37.452Z,-5.92
2023-03-06T01:36:35.928Z,-5.97
2023-03-06T01:37:36.504Z,-5.95
2023-03-06T01:38:35.943Z,-5.95
2023-03-06T01:39:35.939Z,-6.07
2023-03-06T01:40:36.973Z,-6.18
2023-03-06T01:41:36.311Z,-6.02
2023-03-06T01:42:36.002Z,-6
2023-03-06T01:43:40.386Z,-5.99
2023-03-06T01:44:36.613Z,-5.98
2023-03-06T01:46:38.729Z,-5.83
2023-03-06T01:47:37.887Z,-5.83
2023-03-06T01:48:38.055Z,-5.78
2023-03-06T01:49:39.939Z,-5.79
2023-03-06T01:50:38.065Z,-5.77
2023-03-06T01:53:43.220Z,-5.83
2023-03-06T01:54:53.662Z,-5.76
2023-03-06T01:55:45.431Z,-5.8
2023-03-06T01:56:46.412Z,-5.72
2023-03-06T01:57:47.263Z,-5.71
2023-03-06T01:58:45.491Z,-5.68
2023-03-06T01:59:48.052Z,-5.69
2023-03-06T02:00:45.662Z,-5.72
2023-03-06T02:01:46.416Z,-5.69
2023-03-06T02:02:49.799Z,-5.66
2023-03-06T02:03:48.074Z,-5.66
2023-03-06T02:04:46.946Z,-5.67
2023-03-06T02:05:46.647Z,-5.68
2023-03-06T02:06:47.385Z,-5.65
2023-03-06T02:07:47.674Z,-5.61
2023-03-06T02:08:48.340Z,-5.58
2023-03-06T02:09:46.864Z,-5.61
2023-03-06T02:11:47.397Z,-5.64
2023-03-06T02:12:48.043Z,-5.62
2023-03-06T02:13:48.103Z,-5.66
2023-03-06T02:14:47.600Z,-5.67
2023-03-06T02:15:47.399Z,-5.65
2023-03-06T02:16:47.859Z,-5.64
2023-03-06T02:17:47.942Z,-5.61
2023-03-06T02:18:48.603Z,-5.64
2023-03-06T02:20:50.793Z,-5.6
2023-03-06T02:21:49.354Z,-5.66
2023-03-06T02:24:58.762Z,-5.57
2023-03-06T02:25:56.322Z,-5.57
2023-03-06T02:26:56.434Z,-5.56
2023-03-06T02:27:55.448Z,-5.59
2023-03-06T02:28:55.627Z,-5.54
2023-03-06T02:29:55.552Z,-5.49
2023-03-06T02:30:56.640Z,-5.53
2023-03-06T02:31:55.748Z,-5.55
2023-03-06T02:32:56.072Z,-5.54
2023-03-06T02:34:57.544Z,-5.54
2023-03-06T02:36:02.040Z,-5.56
2023-03-06T02:37:00.378Z,-5.57
2023-03-06T02:38:04.401Z,-5.56
2023-03-06T02:39:01.013Z,-5.52
2023-03-06T02:40:06.967Z,-5.52
2023-03-06T02:41:04.387Z,-5.51
2023-03-06T02:42:03.248Z,-5.5
2023-03-06T02:43:03.349Z,-5.51
2023-03-06T02:44:03.223Z,-5.48
2023-03-06T02:45:05.126Z,-5.46
2023-03-06T02:46:03.402Z,-5.44
2023-03-06T02:47:03.347Z,-5.44
2023-03-06T02:48:03.658Z,-5.5
2023-03-06T02:49:03.523Z,-5.48
2023-03-06T02:50:03.595Z,-5.46
2023-03-06T02:51:03.402Z,-5.47
2023-03-06T02:52:03.599Z,-5.46
2023-03-06T02:53:03.740Z,-5.44
2023-03-06T02:54:03.498Z,-5.46
2023-03-06T02:55:03.916Z,-5.46
2023-03-06T02:56:03.456Z,-5.47
2023-03-06T02:57:03.607Z,-5.46
2023-03-06T02:58:04.128Z,-5.43
2023-03-06T02:59:03.602Z,-5.42
2023-03-06T03:00:04.480Z,-5.44
2023-03-06T03:01:04.133Z,-5.39
2023-03-06T03:02:04.065Z,-5.39
2023-03-06T03:03:04.869Z,-5.4
2023-03-06T03:04:05.071Z,-5.38
2023-03-06T03:05:04.533Z,-5.41
2023-03-06T03:06:04.972Z,-5.43
2023-03-06T03:07:04.123Z,-5.47
2023-03-06T03:08:04.194Z,-5.45
2023-03-06T03:09:04.124Z,-5.46
2023-03-06T03:10:04.401Z,-5.47
2023-03-06T03:11:04.321Z,-5.51
2023-03-06T03:12:05.038Z,-5.51
2023-03-06T03:13:04.226Z,-5.56
2023-03-06T03:14:04.173Z,-5.53
2023-03-06T03:15:04.768Z,-5.5
2023-03-06T03:16:05.651Z,-5.61
2023-03-06T03:17:04.296Z,-5.59
2023-03-06T03:18:04.308Z,-5.55
2023-03-06T03:19:04.255Z,-5.52
2023-03-06T03:20:04.986Z,-5.59
2023-03-06T03:21:07.295Z,-5.61
2023-03-06T03:22:04.303Z,-5.6
2023-03-06T03:23:04.311Z,-5.61
2023-03-06T03:24:04.532Z,-5.64
2023-03-06T03:25:04.710Z,-5.63
2023-03-06T03:26:12.279Z,-5.68
2023-03-06T03:27:09.374Z,-5.7
2023-03-06T03:28:09.130Z,-5.67
2023-03-06T03:29:09.163Z,-5.72
2023-03-06T03:30:12.098Z,-5.71
2023-03-06T03:31:09.783Z,-5.72
2023-03-06T03:32:09.417Z,-5.77
2023-03-06T03:33:09.585Z,-5.74
2023-03-06T03:34:09.280Z,-5.69
2023-03-06T03:35:10.410Z,-5.68
2023-03-06T03:36:09.584Z,-5.7
2023-03-06T03:37:09.641Z,-5.7
2023-03-06T03:38:09.347Z,-5.69
2023-03-06T03:39:09.330Z,-5.69
2023-03-06T03:40:09.735Z,-5.75
2023-03-06T03:41:09.346Z,-5.72
2023-03-06T03:42:09.438Z,-5.71
2023-03-06T03:43:09.379Z,-5.73
2023-03-06T03:44:09.882Z,-5.75
2023-03-06T03:45:10.080Z,-5.79
2023-03-06T03:46:09.442Z,-5.81
2023-03-06T03:47:09.519Z,-5.82
2023-03-06T03:48:09.476Z,-5.79
2023-03-06T03:49:09.487Z,-5.79
2023-03-06T03:50:10.369Z,-5.81
2023-03-06T03:51:10.539Z,-5.78
2023-03-06T03:52:09.530Z,-5.81
2023-03-06T03:53:09.730Z,-5.83
2023-03-06T03:54:09.625Z,-5.89
2023-03-06T03:55:09.936Z,-5.9
2023-03-06T03:56:10.253Z,-5.88
2023-03-06T03:57:09.577Z,-5.89
2023-03-06T03:58:10.080Z,-5.84
2023-03-06T03:59:10.408Z,-5.71
2023-03-06T04:00:10.862Z,-5.79
2023-03-06T04:01:10.296Z,-5.77
2023-03-06T04:02:10.229Z,-5.74
2023-03-06T04:03:10.182Z,-5.77
2023-03-06T04:04:10.187Z,-5.75
2023-03-06T04:05:10.916Z,-5.78
2023-03-06T04:06:10.227Z,-5.75
2023-03-06T04:07:10.328Z,-5.69
2023-03-06T04:08:10.232Z,-5.69
2023-03-06T04:09:10.285Z,-5.77
2023-03-06T04:10:11.625Z,-5.78
2023-03-06T04:11:10.468Z,-5.79
2023-03-06T04:12:10.304Z,-5.81
2023-03-06T04:13:10.350Z,-5.81
2023-03-06T04:14:10.359Z,-5.8
2023-03-06T04:15:10.739Z,-5.81
2023-03-06T04:16:10.533Z,-5.8
2023-03-06T04:17:10.424Z,-5.76
2023-03-06T04:18:10.507Z,-5.74
2023-03-06T04:19:10.477Z,-5.71
2023-03-06T04:20:10.910Z,-5.72
2023-03-06T04:21:10.439Z,-5.71
2023-03-06T04:22:10.499Z,-5.66
2023-03-06T04:23:10.625Z,-5.69
2023-03-06T04:24:10.530Z,-5.67
2023-03-06T04:25:10.523Z,-5.71
2023-03-06T04:26:10.496Z,-5.7
2023-03-06T04:27:10.570Z,-5.68
2023-03-06T04:28:11.143Z,-5.72
2023-03-06T04:29:10.584Z,-5.76
2023-03-06T04:30:11.315Z,-5.81
2023-03-06T04:31:12.361Z,-5.85
2023-03-06T04:32:10.912Z,-5.81
2023-03-06T04:33:10.733Z,-5.79
2023-03-06T04:34:10.659Z,-5.79
2023-03-06T04:35:10.685Z,-5.85
2023-03-06T04:36:19.168Z,-5.87
2023-03-06T04:37:22.693Z,-5.81
2023-03-06T04:38:18.951Z,-5.86
2023-03-06T04:39:18.932Z,-5.86
2023-03-06T04:40:20.525Z,-5.84
2023-03-06T04:41:19.021Z,-5.89
2023-03-06T04:42:19.051Z,-5.88
2023-03-06T04:43:19.058Z,-5.86
2023-03-06T04:44:19.009Z,-5.9
2023-03-06T04:45:19.026Z,-5.89
2023-03-06T04:46:19.142Z,-5.89
2023-03-06T04:47:19.427Z,-5.86
2023-03-06T04:48:19.125Z,-5.86
2023-03-06T04:49:19.128Z,-5.85
2023-03-06T04:50:19.318Z,-5.87
2023-03-06T04:51:19.132Z,-5.89
2023-03-06T04:52:19.141Z,-5.86
2023-03-06T04:53:19.213Z,-5.89
2023-03-06T04:54:19.242Z,-5.88
2023-03-06T04:55:19.724Z,-5.87
2023-03-06T04:56:19.202Z,-5.84
2023-03-06T04:57:19.218Z,-5.8
2023-03-06T04:58:19.273Z,-5.8
2023-03-06T04:59:19.261Z,-5.8
2023-03-06T05:00:20.319Z,-5.77
2023-03-06T05:01:19.616Z,-5.8
2023-03-06T05:02:19.421Z,-5.78
2023-03-06T05:03:19.353Z,-5.73
2023-03-06T05:04:19.360Z,-5.77
2023-03-06T05:05:19.629Z,-5.75
2023-03-06T05:06:19.355Z,-5.77
2023-03-06T05:07:19.377Z,-5.78
2023-03-06T05:08:19.581Z,-5.77
2023-03-06T05:09:19.412Z,-5.7
2023-03-06T05:10:20.483Z,-5.72
2023-03-06T05:11:19.434Z,-5.7
2023-03-06T05:12:19.447Z,-5.67
2023-03-06T05:13:19.484Z,-5.65
2023-03-06T05:14:20.386Z,-5.68
2023-03-06T05:15:19.616Z,-5.71
2023-03-06T05:16:19.555Z,-5.7
2023-03-06T05:17:19.614Z,-5.65
2023-03-06T05:18:19.967Z,-5.68
2023-03-06T05:19:19.564Z,-5.66
2023-03-06T05:20:19.749Z,-5.72
2023-03-06T05:21:19.610Z,-5.71
2023-03-06T05:22:19.678Z,-5.67
2023-03-06T05:23:19.641Z,-5.65
2023-03-06T05:24:19.652Z,-5.64
2023-03-06T05:25:19.737Z,-5.65
2023-03-06T05:26:19.823Z,-5.68
2023-03-06T05:27:19.710Z,-5.71
2023-03-06T05:28:19.976Z,-5.67
2023-03-06T05:29:19.708Z,-5.66
2023-03-06T05:30:19.899Z,-5.67
2023-03-06T05:31:19.897Z,-5.66
2023-03-06T05:32:20.037Z,-5.59
2023-03-06T05:33:19.792Z,-5.65
2023-03-06T05:34:19.822Z,-5.6
2023-03-06T05:35:21.481Z,-5.59
2023-03-06T05:36:19.870Z,-5.57
2023-03-06T05:37:19.902Z,-5.52
2023-03-06T05:38:20.139Z,-5.55
2023-03-06T05:39:19.893Z,-5.49
2023-03-06T05:40:19.952Z,-5.51
2023-03-06T05:41:19.964Z,-5.47
2023-03-06T05:42:20.189Z,-5.47
2023-03-06T05:43:20.300Z,-5.46
2023-03-06T05:44:19.982Z,-5.48
2023-03-06T05:45:20.066Z,-5.52
2023-03-06T05:46:20.135Z,-5.52
2023-03-06T05:47:20.020Z,-5.48
2023-03-06T05:48:20.044Z,-5.5
2023-03-06T05:49:20.073Z,-5.48
2023-03-06T05:50:20.183Z,-5.46
2023-03-06T05:51:20.270Z,-5.5
2023-03-06T05:52:20.126Z,-5.42
2023-03-06T05:53:20.144Z,-5.46
2023-03-06T05:54:20.313Z,-5.37
2023-03-06T05:55:20.168Z,-5.41
2023-03-06T05:56:20.254Z,-5.44
2023-03-06T05:57:20.667Z,-5.42
2023-03-06T05:58:20.226Z,-5.38
2023-03-06T05:59:20.230Z,-5.43
2023-03-06T06:00:20.737Z,-5.46
2023-03-06T06:01:20.693Z,-5.44
2023-03-06T06:02:20.328Z,-5.41
2023-03-06T06:03:20.672Z,-5.48
2023-03-06T06:04:23.086Z,-5.45
2023-03-06T06:05:22.272Z,-5.45
2023-03-06T06:06:22.584Z,-5.47
2023-03-06T06:07:22.327Z,-5.46
2023-03-06T06:08:22.286Z,-5.46
2023-03-06T06:09:22.445Z,-5.37
2023-03-06T06:10:22.309Z,-5.37
2023-03-06T06:11:22.425Z,-5.28
2023-03-06T06:12:22.376Z,-5.3
2023-03-06T06:13:22.344Z,-5.28
2023-03-06T06:14:22.579Z,-5.3
2023-03-06T06:15:22.427Z,-5.31
2023-03-06T06:16:22.388Z,-5.27
2023-03-06T06:17:22.611Z,-5.2
2023-03-06T06:18:22.428Z,-5.25
2023-03-06T06:19:22.572Z,-5.23
2023-03-06T06:20:22.453Z,-5.17
2023-03-06T06:21:22.475Z,-5.25
2023-03-06T06:22:22.496Z,-5.4
2023-03-06T06:23:22.509Z,-5.33
2023-03-06T06:24:24.464Z,-5.34
2023-03-06T06:25:22.521Z,-5.32
2023-03-06T06:26:22.530Z,-5.54
2023-03-06T06:27:22.548Z,-5.56
2023-03-06T06:28:22.583Z,-5.51
2023-03-06T06:29:23.196Z,-5.56
2023-03-06T06:30:22.752Z,-5.6
2023-03-06T06:31:22.654Z,-5.59
2023-03-06T06:32:22.666Z,-5.66
2023-03-06T06:33:23.225Z,-5.49
2023-03-06T06:34:23.305Z,-5.38
2023-03-06T06:35:22.764Z,-5.33
2023-03-06T06:36:22.695Z,-5.47
2023-03-06T06:37:22.814Z,-5.45
2023-03-06T06:38:22.722Z,-5.39
2023-03-06T06:39:23.335Z,-5.38
2023-03-06T06:40:22.871Z,-5.37
2023-03-06T06:42:33.343Z,-5.47
2023-03-06T06:43:28.406Z,-5.62
2023-03-06T06:44:28.543Z,-5.54
2023-03-06T06:45:28.429Z,-5.54
2023-03-06T06:47:14.368Z,-5.54
2023-03-06T06:47:29.687Z,-5.45
2023-03-06T06:48:29.658Z,-5.49
2023-03-06T06:49:29.620Z,-5.36
2023-03-06T06:50:29.691Z,-5.29
2023-03-06T06:51:33.543Z,-5.39
2023-03-06T06:52:29.808Z,-5.36
2023-03-06T06:53:30.212Z,-5.47
2023-03-06T06:54:29.815Z,-5.45
2023-03-06T06:55:29.863Z,-5.37
2023-03-06T06:56:29.857Z,-5.3
2023-03-06T06:57:29.902Z,-5.39
2023-03-06T06:58:29.912Z,-5.29
2023-03-06T06:59:29.905Z,-5.32
2023-03-06T07:00:30.146Z,-5.22
2023-03-06T07:01:30.187Z,-5.38
2023-03-06T07:02:30.064Z,-5.32
2023-03-06T07:03:30.102Z,-5.4
2023-03-06T07:04:29.952Z,-5.36
2023-03-06T07:05:30.062Z,-5.3
2023-03-06T07:06:30.018Z,-5.23
2023-03-06T07:07:30.376Z,-5.24
2023-03-06T07:08:30.164Z,-5.35
2023-03-06T07:09:30.354Z,-5.21
2023-03-06T07:10:30.231Z,-5.07
2023-03-06T07:11:30.243Z,-5.08
2023-03-06T07:12:30.108Z,-5.12
2023-03-06T07:13:30.326Z,-5.14
2023-03-06T07:14:30.211Z,-5.04
2023-03-06T07:15:30.231Z,-4.94
2023-03-06T07:16:30.245Z,-4.72
2023-03-06T07:17:30.388Z,-4.79
2023-03-06T07:18:30.359Z,-4.88
2023-03-06T07:19:30.145Z,-4.8
2023-03-06T07:20:30.536Z,-4.89
2023-03-06T07:21:30.156Z,-4.87
2023-03-06T07:22:35.860Z,-4.76
2023-03-06T07:23:32.845Z,-4.76
2023-03-06T07:24:32.778Z,-4.73
2023-03-06T07:25:32.775Z,-4.86
2023-03-06T07:26:34.775Z,-4.73
2023-03-06T07:27:32.807Z,-4.73
2023-03-06T07:28:46.187Z,-4.7
2023-03-06T07:29:38.220Z,-4.55
2023-03-06T07:30:40.303Z,-4.61
2023-03-06T07:31:38.369Z,-4.64
2023-03-06T07:32:38.288Z,-4.63
2023-03-06T07:33:39.051Z,-4.55
2023-03-06T07:34:38.188Z,-4.48
2023-03-06T07:35:38.355Z,-4.67
2023-03-06T07:36:38.266Z,-4.49
2023-03-06T07:37:38.258Z,-4.48
2023-03-06T07:38:38.302Z,-4.51
2023-03-06T07:39:38.518Z,-4.43
2023-03-06T07:40:38.941Z,-4.4
2023-03-06T07:41:38.312Z,-4.4
2023-03-06T07:42:38.363Z,-4.44
2023-03-06T07:43:38.384Z,-4.48
2023-03-06T07:44:38.535Z,-4.49
2023-03-06T07:45:38.517Z,-4.42
2023-03-06T07:46:38.465Z,-4.48
2023-03-06T07:47:38.905Z,-4.39
2023-03-06T07:48:38.561Z,-4.47
2023-03-06T07:49:38.403Z,-4.49
2023-03-06T07:50:38.376Z,-4.4
2023-03-06T07:51:38.436Z,-4.44
2023-03-06T07:52:38.528Z,-4.29
2023-03-06T07:53:38.622Z,-4.3
2023-03-06T07:54:38.524Z,-4.36
2023-03-06T07:55:39.663Z,-4.21
2023-03-06T07:56:38.501Z,-4.1
2023-03-06T07:57:38.701Z,-4.08
2023-03-06T07:58:40.604Z,-4.09
2023-03-06T07:59:38.549Z,-4.08
2023-03-06T08:00:38.868Z,-4.03
2023-03-06T08:01:38.748Z,-4.08
2023-03-06T08:02:38.778Z,-3.92
2023-03-06T08:03:38.658Z,-4.14
2023-03-06T08:04:38.937Z,-3.93
2023-03-06T08:05:38.834Z,-3.96
2023-03-06T08:06:38.788Z,-3.89
2023-03-06T08:07:38.726Z,-3.82
2023-03-06T08:08:39.506Z,-3.77
2023-03-06T08:09:38.872Z,-3.88
2023-03-06T08:10:38.961Z,-3.73
2023-03-06T08:11:38.798Z,-3.73
2023-03-06T08:12:39.287Z,-3.83
2023-03-06T08:13:41.594Z,-3.77
2023-03-06T08:14:38.865Z,-3.61
2023-03-06T08:15:38.837Z,-3.73
2023-03-06T08:16:38.871Z,-3.82
2023-03-06T08:17:39.233Z,-3.73
2023-03-06T08:18:38.766Z,-3.43
2023-03-06T08:19:38.881Z,-3.43
2023-03-06T08:20:38.794Z,-3.35
2023-03-06T08:21:38.802Z,-3.54
2023-03-06T08:22:38.887Z,-3.51
2023-03-06T08:23:39.547Z,-3.52
2023-03-06T08:24:39.010Z,-3.42
2023-03-06T08:25:39.119Z,-3.37
2023-03-06T08:26:39.103Z,-3.44
2023-03-06T08:27:39.324Z,-3.47
2023-03-06T08:28:39.409Z,-3.33
2023-03-06T08:29:39.089Z,-3.3
2023-03-06T08:30:39.121Z,-3.21
2023-03-06T08:31:40.915Z,-3.61
2023-03-06T08:32:39.422Z,-3.59
2023-03-06T08:33:40.041Z,-3.5
2023-03-06T08:34:38.971Z,-3.35
2023-03-06T08:35:39.006Z,-3.33
2023-03-06T08:36:39.328Z,-3.32
2023-03-06T08:37:39.043Z,-3.26
2023-03-06T08:38:39.128Z,-3.13
2023-03-06T08:39:39.755Z,-2.78
2023-03-06T08:40:39.120Z,-2.65
2023-03-06T08:41:39.318Z,-2.62
2023-03-06T08:42:39.302Z,-2.76
2023-03-06T08:43:39.089Z,-2.52
2023-03-06T08:44:39.083Z,-2.63
2023-03-06T08:45:39.232Z,-2.77
2023-03-06T08:46:39.557Z,-2.75
2023-03-06T08:47:39.124Z,-2.87
2023-03-06T08:48:44.460Z,-2.59
2023-03-06T08:49:41.159Z,-2.48
2023-03-06T08:50:41.179Z,-2.56
2023-03-06T08:51:41.234Z,-2.51
2023-03-06T08:52:41.180Z,-2.63
2023-03-06T08:53:43.526Z,-2.61
2023-03-06T08:54:41.220Z,-2.6
2023-03-06T08:55:41.200Z,-2.82
2023-03-06T08:56:41.200Z,-2.92
2023-03-06T08:57:41.222Z,-2.98
2023-03-06T08:58:41.287Z,-3
2023-03-06T08:59:41.297Z,-3.15
2023-03-06T09:00:41.440Z,-3.08
2023-03-06T09:01:41.496Z,-3.26
2023-03-06T09:02:41.462Z,-3.25
2023-03-06T09:03:41.354Z,-3.2
2023-03-06T09:04:41.478Z,-3.22
2023-03-06T09:05:41.395Z,-3.34
2023-03-06T09:06:42.439Z,-3.22
2023-03-06T09:07:41.395Z,-3.25
2023-03-06T09:08:41.433Z,-3.31
2023-03-06T09:09:41.419Z,-3.33
2023-03-06T09:10:45.276Z,-3.29
2023-03-06T09:11:42.026Z,-3.38
2023-03-06T09:12:50.156Z,-3.37
2023-03-06T09:13:43.314Z,-3.37
2023-03-06T09:14:48.231Z,-3.4
2023-03-06T09:15:44.979Z,-3.42
2023-03-06T09:16:45.098Z,-3.6
2023-03-06T09:17:45.145Z,-3.61
2023-03-06T09:18:45.089Z,-3.64
2023-03-06T09:19:45.840Z,-3.64
2023-03-06T09:20:45.036Z,-3.55
2023-03-06T09:21:45.644Z,-3.57
2023-03-06T09:22:45.839Z,-3.5
2023-03-06T09:23:45.590Z,-3.55
2023-03-06T09:24:45.622Z,-3.53
2023-03-06T09:25:45.611Z,-3.38
2023-03-06T09:26:47.598Z,-3.44
2023-03-06T09:27:46.602Z,-3.37
2023-03-06T09:28:45.708Z,-3.32
2023-03-06T09:29:45.703Z,-3.28
2023-03-06T09:30:45.824Z,-3.2
2023-03-06T09:31:45.728Z,-3.27
2023-03-06T09:32:45.741Z,-3.34
2023-03-06T09:33:46.284Z,-3.22
2023-03-06T09:34:45.863Z,-3.27
2023-03-06T09:35:55.725Z,-3.16
2023-03-06T09:36:56.456Z,-3.03
2023-03-06T09:37:49.086Z,-3.07
2023-03-06T09:38:49.203Z,-3.05
2023-03-06T09:39:49.051Z,-3.05
2023-03-06T09:41:49.772Z,-3.05
2023-03-06T09:42:50.665Z,-2.95
2023-03-06T09:43:51.518Z,-3
2023-03-06T09:44:51.549Z,-3.01
2023-03-06T09:45:49.312Z,-3.01
2023-03-06T09:50:07.515Z,-2.96
2023-03-06T09:51:10.506Z,-2.95
2023-03-06T09:54:15.324Z,-2.72
2023-03-06T09:55:17.596Z,-2.72
2023-03-06T09:56:17.907Z,-2.81
2023-03-06T09:58:22.019Z,-2.75
2023-03-06T09:59:23.052Z,-2.74
2023-03-06T10:00:23.670Z,-2.8
2023-03-06T10:01:22.496Z,-2.98
2023-03-06T10:03:24.635Z,-2.73
2023-03-06T10:05:31.596Z,-2.8
2023-03-06T10:07:33.145Z,-2.89
2023-03-06T10:09:41.191Z,-2.74
2023-03-06T10:11:45.326Z,-2.63
2023-03-06T10:12:47.239Z,-2.63
2023-03-06T10:13:45.147Z,-2.71
2023-03-06T10:14:47.761Z,-2.7
2023-03-06T10:15:47.091Z,-2.7
2023-03-06T10:16:45.181Z,-2.67
2023-03-06T10:17:45.483Z,-2.62
2023-03-06T10:18:45.400Z,-2.59
2023-03-06T10:19:45.322Z,-2.58
2023-03-06T10:20:53.585Z,-2.58
2023-03-06T10:23:03.178Z,-2.65
2023-03-06T10:26:02.381Z,-2.66
2023-03-06T10:32:23.549Z,-2.63
2023-03-06T10:33:22.259Z,-2.81
2023-03-06T10:34:23.235Z,-2.61
2023-03-06T10:35:22.673Z,-2.55
2023-03-06T10:36:20.560Z,-2.52
2023-03-06T10:37:21.396Z,-2.5
2023-03-06T10:39:22.296Z,-2.53
2023-03-06T10:40:24.761Z,-2.66
2023-03-06T10:41:24.051Z,-2.65
2023-03-06T10:42:24.830Z,-2.83
2023-03-06T10:43:22.319Z,-2.88
2023-03-06T10:44:22.034Z,-2.78
2023-03-06T10:45:21.288Z,-2.81
2023-03-06T10:48:29.231Z,-2.86
2023-03-06T10:50:30.550Z,-2.74
2023-03-06T10:51:30.009Z,-2.84
2023-03-06T10:52:30.273Z,-2.86
2023-03-06T10:53:28.820Z,-2.87
2023-03-06T10:54:30.105Z,-2.77
2023-03-06T10:55:30.402Z,-2.79
2023-03-06T10:57:31.767Z,-2.95
2023-03-06T10:58:32.186Z,-2.97
2023-03-06T10:59:31.078Z,-2.9
2023-03-06T11:00:35.093Z,-2.98
2023-03-06T11:01:31.737Z,-3.01
2023-03-06T11:02:33.233Z,-3.06
2023-03-06T11:03:31.460Z,-3.06
2023-03-06T11:04:35.331Z,-3.05
2023-03-06T11:05:31.738Z,-3.06
2023-03-06T11:06:32.836Z,-3.06
2023-03-06T11:07:35.122Z,-3.16
2023-03-06T11:08:31.843Z,-3.16
2023-03-06T11:09:31.822Z,-3.06
2023-03-06T11:10:31.844Z,-3.1
2023-03-06T11:11:37.775Z,-3.07
2023-03-06T11:12:43.253Z,-3.07
2023-03-06T11:13:36.042Z,-3.04
2023-03-06T11:14:34.483Z,-3.05
2023-03-06T11:15:34.550Z,-2.97
2023-03-06T11:16:34.597Z,-2.93
2023-03-06T11:18:39.883Z,-3
2023-03-06T11:19:37.704Z,-2.93
2023-03-06T11:20:51.601Z,-2.98
2023-03-06T11:21:39.429Z,-2.99
2023-03-06T11:22:39.759Z,-2.85
2023-03-06T11:23:45.939Z,-2.89
2023-03-06T11:24:45.686Z,-2.81
2023-03-06T11:25:47.176Z,-2.85
2023-03-06T11:26:49.084Z,-2.9
2023-03-06T11:27:49.669Z,-2.74
2023-03-06T11:29:53.639Z,-2.64
2023-03-06T11:33:02.953Z,-2.5
2023-03-06T11:35:06.481Z,-2.37
2023-03-06T11:37:08.149Z,-2.39
2023-03-06T11:42:23.762Z,-2.64
2023-03-06T11:45:34.198Z,-2.64
2023-03-06T11:46:32.976Z,-2.7
2023-03-06T11:47:36.562Z,-2.72
2023-03-06T11:48:41.497Z,-2.67
2023-03-06T11:49:45.589Z,-2.73
2023-03-06T11:50:46.521Z,-2.72
2023-03-06T11:51:48.584Z,-2.75
2023-03-06T11:52:51.000Z,-2.71
2023-03-06T11:53:50.796Z,-2.64
2023-03-06T11:54:50.654Z,-2.63
2023-03-06T11:56:54.878Z,-2.42
2023-03-06T11:58:01.364Z,-2.49
2023-03-06T12:07:25.570Z,-2.52
2023-03-06T12:11:34.593Z,-2.41
2023-03-06T12:15:47.309Z,-2.54
2023-03-06T12:16:52.807Z,-2.58
2023-03-06T12:22:57.771Z,-2.69
2023-03-06T12:33:26.230Z,-1.68
2023-03-06T12:45:56.648Z,-1.78
2023-03-06T12:47:03.498Z,-2.26
2023-03-06T12:47:56.320Z,-2.15
2023-03-06T12:49:02.680Z,-1.66
2023-03-06T12:50:02.688Z,-1.62
2023-03-06T12:50:59.739Z,-1.12
2023-03-06T12:52:00.613Z,-1.26
2023-03-06T12:53:07.528Z,-1.22
2023-03-06T12:54:04.488Z,-1.12
2023-03-06T12:55:06.109Z,-1.23
2023-03-06T12:56:04.746Z,-1.1
2023-03-06T12:57:05.733Z,-1.2
2023-03-06T13:03:22.956Z,-2.11
2023-03-06T13:07:36.484Z,-1.56
2023-03-06T13:10:38.791Z,-1.36
2023-03-06T13:11:49.909Z,-1.6
2023-03-06T13:13:44.585Z,-1.5
2023-03-06T13:15:43.003Z,-1.07
2023-03-06T13:16:41.865Z,-0.84
2023-03-06T13:17:41.825Z,-1.33
2023-03-06T13:18:46.671Z,-1.05
2023-03-06T13:19:43.556Z,-0.94
2023-03-06T13:20:45.916Z,-0.74
2023-03-06T13:22:46.173Z,-1.09
2023-03-06T13:24:45.752Z,-0.73
2023-03-06T13:25:47.581Z,-0.6
2023-03-06T13:28:54.089Z,-1.23
2023-03-06T13:29:51.420Z,-1.22
2023-03-06T13:30:52.028Z,-1.25
2023-03-06T13:32:52.133Z,-0.98
2023-03-06T13:33:53.914Z,-0.91
2023-03-06T13:34:52.102Z,-0.91
2023-03-06T13:35:55.712Z,-0.75
2023-03-06T13:36:52.579Z,-0.92
2023-03-06T13:37:52.881Z,-1.25
2023-03-06T13:38:56.724Z,-1.56
2023-03-06T13:42:02.330Z,-1.77
2023-03-06T13:45:14.628Z,-2.3
2023-03-06T13:46:19.108Z,-2.25
2023-03-06T13:48:43.227Z,-2.08
2023-03-06T13:49:22.891Z,-2.07
2023-03-06T13:51:28.082Z,-2.14
2023-03-06T14:00:52.773Z,-2.26
2023-03-06T14:03:59.935Z,-2.24
2023-03-06T14:04:55.622Z,-2.21
2023-03-06T14:05:52.392Z,-2.26
2023-03-06T14:07:04.890Z,-2.36
2023-03-06T14:08:59.300Z,-2.42
2023-03-06T14:14:11.052Z,-2.47
2023-03-06T14:16:10.897Z,-2.51
2023-03-06T14:18:16.506Z,-2.46
2023-03-06T14:19:17.551Z,-2.43
2023-03-06T14:20:14.898Z,-2.52
2023-03-06T14:21:14.674Z,-2.54
2023-03-06T14:22:17.075Z,-2.5
2023-03-06T14:23:14.857Z,-2.56
2023-03-06T14:24:18.243Z,-2.53
2023-03-06T14:25:20.422Z,-2.47
2023-03-06T14:26:18.834Z,-2.46
2023-03-06T14:27:17.470Z,-2.48
2023-03-06T14:28:24.261Z,-2.44
2023-03-06T14:29:21.726Z,-2.41
2023-03-06T14:30:21.701Z,-2.47
2023-03-06T14:31:24.840Z,-2.46
2023-03-06T14:32:22.318Z,-2.5
2023-03-06T14:33:29.847Z,-2.61
2023-03-06T14:34:27.629Z,-2.62
2023-03-06T14:35:30.154Z,-2.66
2023-03-06T14:36:32.193Z,-2.62
2023-03-06T14:37:29.136Z,-2.66
2023-03-06T14:38:31.140Z,-2.66
2023-03-06T14:40:35.831Z,-2.73
2023-03-06T14:41:34.359Z,-2.71
2023-03-06T14:42:33.108Z,-2.73
2023-03-06T14:43:33.193Z,-2.78
2023-03-06T14:44:33.158Z,-2.81
2023-03-06T14:45:33.166Z,-2.83
2023-03-06T14:46:33.162Z,-2.96
2023-03-06T14:47:34.318Z,-2.97
2023-03-06T14:49:34.488Z,-2.93
2023-03-06T14:50:34.958Z,-2.93
2023-03-06T14:51:40.797Z,-2.92
2023-03-06T14:52:37.441Z,-2.99
2023-03-06T14:53:37.218Z,-2.99
2023-03-06T14:54:37.115Z,-2.96
2023-03-06T14:55:37.472Z,-2.9
2023-03-06T14:56:40.205Z,-2.92
2023-03-06T14:57:37.195Z,-2.93
2023-03-06T14:59:43.747Z,-2.94
2023-03-06T15:00:43.374Z,-2.99
2023-03-06T15:01:41.308Z,-3.03
2023-03-06T15:02:40.249Z,-3.11
2023-03-06T15:03:49.097Z,-3.05
2023-03-06T15:04:42.023Z,-3.16
2023-03-06T15:05:40.782Z,-3.18
2023-03-06T15:06:41.705Z,-3.24
2023-03-06T15:07:41.613Z,-3.29
2023-03-06T15:08:43.568Z,-3.21
2023-03-06T15:09:43.480Z,-3.17
2023-03-06T15:10:40.467Z,-3.14
2023-03-06T15:12:41.298Z,-3.21
2023-03-06T15:13:41.372Z,-3.19
2023-03-06T15:14:42.320Z,-3.2